sensor_id;sensor_type;location;lat;lon;timestamp;pressure;altitude;pressure_sealevel;temperature;humidity
76766;BME280;65707;52.362;6.588;2023-09-08T00:00:24;101782.13;;;21.27;60.98
76766;BME280;65707;52.362;6.588;2023-09-08T00:02:52;101784.84;;;21.27;61.16
76766;BME280;65707;52.362;6.588;2023-09-08T00:05:18;101796.41;;;21.29;61.23
76766;BME280;65707;52.362;6.588;2023-09-08T00:07:46;101786.13;;;21.25;61.41
76766;BME280;65707;52.362;6.588;2023-09-08T00:10:13;101787.38;;;21.22;61.52
76766;BME280;65707;52.362;6.588;2023-09-08T00:12:41;101790.81;;;21.05;62.25
76766;BME280;65707;52.362;6.588;2023-09-08T00:15:09;101788.09;;;21.05;62.34
76766;BME280;65707;52.362;6.588;2023-09-08T00:17:36;101788.31;;;21.03;62.26
76766;BME280;65707;52.362;6.588;2023-09-08T00:20:04;101788.72;;;21.00;62.23
76766;BME280;65707;52.362;6.588;2023-09-08T00:22:33;101777.78;;;21.00;62.43
76766;BME280;65707;52.362;6.588;2023-09-08T00:25:03;101785.13;;;20.93;62.60
76766;BME280;65707;52.362;6.588;2023-09-08T00:27:30;101787.44;;;20.90;62.74
76766;BME280;65707;52.362;6.588;2023-09-08T00:29:56;101785.78;;;20.82;62.96
76766;BME280;65707;52.362;6.588;2023-09-08T00:32:23;101787.25;;;20.78;63.07
76766;BME280;65707;52.362;6.588;2023-09-08T00:34:49;101788.53;;;20.69;63.56
76766;BME280;65707;52.362;6.588;2023-09-08T00:37:16;101787.91;;;20.67;63.65
76766;BME280;65707;52.362;6.588;2023-09-08T00:39:43;101784.56;;;20.65;63.62
76766;BME280;65707;52.362;6.588;2023-09-08T00:42:10;101776.38;;;20.59;64.02
76766;BME280;65707;52.362;6.588;2023-09-08T00:44:40;101779.94;;;20.46;64.50
76766;BME280;65707;52.362;6.588;2023-09-08T00:47:06;101777.63;;;20.37;64.95
76766;BME280;65707;52.362;6.588;2023-09-08T00:49:33;101780.78;;;20.34;65.08
76766;BME280;65707;52.362;6.588;2023-09-08T00:52:00;101779.94;;;20.33;65.21
76766;BME280;65707;52.362;6.588;2023-09-08T00:54:26;101779.94;;;20.27;65.39
76766;BME280;65707;52.362;6.588;2023-09-08T00:56:55;101768.84;;;20.22;65.67
76766;BME280;65707;52.362;6.588;2023-09-08T00:59:25;101761.44;;;20.09;66.24
76766;BME280;65707;52.362;6.588;2023-09-08T01:01:54;101763.72;;;19.99;66.60
76766;BME280;65707;52.362;6.588;2023-09-08T01:04:21;101765.63;;;20.05;66.11
76766;BME280;65707;52.362;6.588;2023-09-08T01:06:48;101766.47;;;20.06;65.97
76766;BME280;65707;52.362;6.588;2023-09-08T01:09:15;101775.28;;;20.01;66.51
76766;BME280;65707;52.362;6.588;2023-09-08T01:11:42;101766.88;;;19.96;66.55
76766;BME280;65707;52.362;6.588;2023-09-08T01:14:11;101762.88;;;19.92;66.63
76766;BME280;65707;52.362;6.588;2023-09-08T01:16:40;101759.72;;;19.82;67.04
76766;BME280;65707;52.362;6.588;2023-09-08T01:19:10;101766.00;;;19.82;67.30
76766;BME280;65707;52.362;6.588;2023-09-08T01:22:01;101763.91;;;19.84;67.21
76766;BME280;65707;52.362;6.588;2023-09-08T01:27:46;101769.53;;;19.76;67.31
76766;BME280;65707;52.362;6.588;2023-09-08T01:30:18;101770.56;;;19.62;67.94
76766;BME280;65707;52.362;6.588;2023-09-08T01:32:47;101770.53;;;19.49;68.66
76766;BME280;65707;52.362;6.588;2023-09-08T01:35:14;101768.44;;;19.58;68.25
76766;BME280;65707;52.362;6.588;2023-09-08T01:37:41;101770.97;;;19.59;68.24
76766;BME280;65707;52.362;6.588;2023-09-08T01:40:08;101766.34;;;19.53;68.69
76766;BME280;65707;52.362;6.588;2023-09-08T01:42:36;101767.81;;;19.49;68.62
76766;BME280;65707;52.362;6.588;2023-09-08T01:45:05;101765.91;;;19.50;68.65
76766;BME280;65707;52.362;6.588;2023-09-08T01:47:32;101768.00;;;19.48;68.46
76766;BME280;65707;52.362;6.588;2023-09-08T01:49:59;101765.88;;;19.43;68.64
76766;BME280;65707;52.362;6.588;2023-09-08T01:52:26;101765.47;;;19.40;68.41
76766;BME280;65707;52.362;6.588;2023-09-08T01:54:53;101755.19;;;19.35;68.86
76766;BME280;65707;52.362;6.588;2023-09-08T01:57:19;101757.69;;;19.30;68.86
76766;BME280;65707;52.362;6.588;2023-09-08T01:59:46;101763.31;;;19.29;68.85
76766;BME280;65707;52.362;6.588;2023-09-08T02:02:14;101762.22;;;19.23;69.22
76766;BME280;65707;52.362;6.588;2023-09-08T02:04:41;101760.69;;;19.14;69.76
76766;BME280;65707;52.362;6.588;2023-09-08T02:07:07;101761.72;;;19.07;69.93
76766;BME280;65707;52.362;6.588;2023-09-08T02:09:35;101762.94;;;19.04;70.15
76766;BME280;65707;52.362;6.588;2023-09-08T02:12:03;101760.44;;;19.03;70.40
76766;BME280;65707;52.362;6.588;2023-09-08T02:14:30;101761.88;;;18.99;70.51
76766;BME280;65707;52.362;6.588;2023-09-08T02:16:57;101765.63;;;18.98;70.96
76766;BME280;65707;52.362;6.588;2023-09-08T02:19:25;101767.28;;;18.92;70.91
76766;BME280;65707;52.362;6.588;2023-09-08T02:21:51;101752.78;;;18.85;71.02
76766;BME280;65707;52.362;6.588;2023-09-08T02:24:24;101755.50;;;18.79;71.15
76766;BME280;65707;52.362;6.588;2023-09-08T02:26:51;101747.09;;;18.74;71.43
76766;BME280;65707;52.362;6.588;2023-09-08T02:29:17;101754.59;;;18.72;71.04
76766;BME280;65707;52.362;6.588;2023-09-08T02:31:44;101753.94;;;18.70;71.28
76766;BME280;65707;52.362;6.588;2023-09-08T02:34:11;101748.28;;;18.65;71.57
76766;BME280;65707;52.362;6.588;2023-09-08T02:36:39;101751.78;;;18.59;71.87
76766;BME280;65707;52.362;6.588;2023-09-08T02:39:06;101748.63;;;18.55;71.88
76766;BME280;65707;52.362;6.588;2023-09-08T02:41:34;101752.16;;;18.56;72.28
76766;BME280;65707;52.362;6.588;2023-09-08T02:44:01;101750.91;;;18.52;72.27
76766;BME280;65707;52.362;6.588;2023-09-08T02:46:28;101755.03;;;18.47;72.14
76766;BME280;65707;52.362;6.588;2023-09-08T02:48:55;101753.13;;;18.41;72.45
76766;BME280;65707;52.362;6.588;2023-09-08T02:51:21;101754.81;;;18.42;72.17
76766;BME280;65707;52.362;6.588;2023-09-08T02:53:49;101756.59;;;18.35;72.49
76766;BME280;65707;52.362;6.588;2023-09-08T02:56:16;101756.34;;;18.30;72.89
76766;BME280;65707;52.362;6.588;2023-09-08T02:58:42;101755.13;;;18.33;72.63
76766;BME280;65707;52.362;6.588;2023-09-08T03:01:14;101754.28;;;18.32;72.62
76766;BME280;65707;52.362;6.588;2023-09-08T03:03:41;101753.81;;;18.29;73.00
76766;BME280;65707;52.362;6.588;2023-09-08T03:06:08;101763.47;;;18.31;72.85
76766;BME280;65707;52.362;6.588;2023-09-08T03:08:35;101758.84;;;18.32;72.91
76766;BME280;65707;52.362;6.588;2023-09-08T03:11:08;101761.16;;;18.28;73.05
76766;BME280;65707;52.362;6.588;2023-09-08T03:13:35;101754.00;;;18.27;72.99
76766;BME280;65707;52.362;6.588;2023-09-08T03:16:03;101757.13;;;18.24;73.14
76766;BME280;65707;52.362;6.588;2023-09-08T03:18:30;101760.22;;;18.21;73.10
76766;BME280;65707;52.362;6.588;2023-09-08T03:20:58;101762.31;;;18.19;73.06
76766;BME280;65707;52.362;6.588;2023-09-08T03:23:24;101757.25;;;18.16;73.21
76766;BME280;65707;52.362;6.588;2023-09-08T03:25:51;101757.38;;;18.08;73.27
76766;BME280;65707;52.362;6.588;2023-09-08T03:28:21;101756.50;;;18.01;74.00
76766;BME280;65707;52.362;6.588;2023-09-08T03:30:47;101756.13;;;18.04;73.83
76766;BME280;65707;52.362;6.588;2023-09-08T03:33:14;101755.47;;;18.02;73.84
76766;BME280;65707;52.362;6.588;2023-09-08T03:35:40;101751.69;;;18.03;73.76
76766;BME280;65707;52.362;6.588;2023-09-08T03:38:08;101761.94;;;18.01;73.75
76766;BME280;65707;52.362;6.588;2023-09-08T03:40:35;101751.47;;;17.98;73.98
76766;BME280;65707;52.362;6.588;2023-09-08T03:43:07;101753.91;;;17.93;74.01
76766;BME280;65707;52.362;6.588;2023-09-08T03:45:38;101759.28;;;17.87;74.26
76766;BME280;65707;52.362;6.588;2023-09-08T03:48:05;101753.19;;;17.85;74.51
76766;BME280;65707;52.362;6.588;2023-09-08T03:50:32;101755.47;;;17.81;74.33
76766;BME280;65707;52.362;6.588;2023-09-08T03:53:01;101748.16;;;17.82;74.48
76766;BME280;65707;52.362;6.588;2023-09-08T03:55:28;101746.00;;;17.77;74.44
76766;BME280;65707;52.362;6.588;2023-09-08T03:57:54;101741.81;;;17.75;74.63
76766;BME280;65707;52.362;6.588;2023-09-08T04:00:24;101743.50;;;17.76;74.88
76766;BME280;65707;52.362;6.588;2023-09-08T04:02:52;101746.13;;;17.69;75.54
76766;BME280;65707;52.362;6.588;2023-09-08T04:05:19;101748.59;;;17.64;75.55
76766;BME280;65707;52.362;6.588;2023-09-08T04:07:48;101752.63;;;17.68;74.89
76766;BME280;65707;52.362;6.588;2023-09-08T04:10:15;101758.22;;;17.67;75.43
76766;BME280;65707;52.362;6.588;2023-09-08T04:12:41;101756.72;;;17.64;75.65
76766;BME280;65707;52.362;6.588;2023-09-08T04:15:09;101749.16;;;17.60;75.71
76766;BME280;65707;52.362;6.588;2023-09-08T04:17:38;101751.06;;;17.59;75.53
76766;BME280;65707;52.362;6.588;2023-09-08T04:20:07;101756.22;;;17.54;75.36
76766;BME280;65707;52.362;6.588;2023-09-08T04:22:34;101740.31;;;17.51;75.55
76766;BME280;65707;52.362;6.588;2023-09-08T04:25:01;101747.59;;;17.51;75.64
76766;BME280;65707;52.362;6.588;2023-09-08T04:27:28;101735.47;;;17.47;75.69
76766;BME280;65707;52.362;6.588;2023-09-08T04:29:55;101752.38;;;17.49;75.95
76766;BME280;65707;52.362;6.588;2023-09-08T04:32:21;101748.84;;;17.48;76.08
76766;BME280;65707;52.362;6.588;2023-09-08T04:34:51;101750.91;;;17.46;76.29
76766;BME280;65707;52.362;6.588;2023-09-08T04:37:19;101749.66;;;17.49;76.27
76766;BME280;65707;52.362;6.588;2023-09-08T04:39:46;101748.66;;;17.50;75.85
76766;BME280;65707;52.362;6.588;2023-09-08T04:42:15;101750.31;;;17.51;76.00
76766;BME280;65707;52.362;6.588;2023-09-08T04:44:42;101749.09;;;17.53;75.97
76766;BME280;65707;52.362;6.588;2023-09-08T04:47:09;101745.56;;;17.53;76.07
76766;BME280;65707;52.362;6.588;2023-09-08T04:49:38;101745.75;;;17.51;76.49
76766;BME280;65707;52.362;6.588;2023-09-08T04:52:05;101746.38;;;17.53;76.31
76766;BME280;65707;52.362;6.588;2023-09-08T04:54:33;101738.41;;;17.52;76.13
76766;BME280;65707;52.362;6.588;2023-09-08T04:57:00;101759.31;;;17.51;76.20
76766;BME280;65707;52.362;6.588;2023-09-08T04:59:26;101756.97;;;17.48;76.25
76766;BME280;65707;52.362;6.588;2023-09-08T05:01:53;101755.56;;;17.52;76.34
76766;BME280;65707;52.362;6.588;2023-09-08T05:04:19;101762.03;;;17.51;76.32
76766;BME280;65707;52.362;6.588;2023-09-08T05:06:46;101749.94;;;17.54;76.50
76766;BME280;65707;52.362;6.588;2023-09-08T05:09:13;101752.47;;;17.55;76.88
76766;BME280;65707;52.362;6.588;2023-09-08T05:11:41;101758.06;;;17.54;77.09
76766;BME280;65707;52.362;6.588;2023-09-08T05:14:08;101754.97;;;17.57;76.96
76766;BME280;65707;52.362;6.588;2023-09-08T05:16:34;101756.91;;;17.63;76.86
76766;BME280;65707;52.362;6.588;2023-09-08T05:19:10;101762.94;;;17.58;76.74
76766;BME280;65707;52.362;6.588;2023-09-08T05:21:39;101758.44;;;17.65;76.84
76766;BME280;65707;52.362;6.588;2023-09-08T05:24:06;101757.00;;;17.69;76.61
76766;BME280;65707;52.362;6.588;2023-09-08T05:26:34;101751.56;;;17.69;76.85
76766;BME280;65707;52.362;6.588;2023-09-08T05:29:02;101761.78;;;17.67;77.38
76766;BME280;65707;52.362;6.588;2023-09-08T05:31:28;101764.31;;;17.69;77.29
76766;BME280;65707;52.362;6.588;2023-09-08T05:33:55;101755.47;;;17.81;77.09
76766;BME280;65707;52.362;6.588;2023-09-08T05:36:21;101752.28;;;17.78;77.45
76766;BME280;65707;52.362;6.588;2023-09-08T05:38:51;101753.78;;;17.80;77.68
76766;BME280;65707;52.362;6.588;2023-09-08T05:41:17;101749.66;;;17.84;77.74
76766;BME280;65707;52.362;6.588;2023-09-08T05:43:44;101748.28;;;17.95;77.29
76766;BME280;65707;52.362;6.588;2023-09-08T05:46:12;101746.44;;;17.95;77.57
76766;BME280;65707;52.362;6.588;2023-09-08T05:48:39;101745.72;;;18.08;77.36
76766;BME280;65707;52.362;6.588;2023-09-08T05:51:08;101742.41;;;18.12;76.93
76766;BME280;65707;52.362;6.588;2023-09-08T05:53:35;101745.22;;;18.25;76.14
76766;BME280;65707;52.362;6.588;2023-09-08T05:56:05;101751.28;;;18.27;76.35
76766;BME280;65707;52.362;6.588;2023-09-08T05:58:32;101746.78;;;18.34;75.79
76766;BME280;65707;52.362;6.588;2023-09-08T06:00:59;101755.00;;;18.41;75.73
76766;BME280;65707;52.362;6.588;2023-09-08T06:03:27;101751.03;;;18.43;75.46
76766;BME280;65707;52.362;6.588;2023-09-08T06:05:55;101749.31;;;18.64;75.27
76766;BME280;65707;52.362;6.588;2023-09-08T06:08:22;101752.53;;;18.74;74.89
76766;BME280;65707;52.362;6.588;2023-09-08T06:10:48;101755.50;;;18.79;74.79
76766;BME280;65707;52.362;6.588;2023-09-08T06:13:15;101751.97;;;18.85;74.18
76766;BME280;65707;52.362;6.588;2023-09-08T06:15:42;101751.19;;;18.97;73.86
76766;BME280;65707;52.362;6.588;2023-09-08T06:18:08;101750.44;;;19.10;73.46
76766;BME280;65707;52.362;6.588;2023-09-08T06:20:36;101746.50;;;19.19;72.83
76766;BME280;65707;52.362;6.588;2023-09-08T06:23:03;101753.63;;;19.26;72.35
76766;BME280;65707;52.362;6.588;2023-09-08T06:25:30;101750.97;;;19.33;72.31
76766;BME280;65707;52.362;6.588;2023-09-08T06:27:59;101745.16;;;19.42;71.92
76766;BME280;65707;52.362;6.588;2023-09-08T06:30:26;101747.66;;;19.44;71.71
76766;BME280;65707;52.362;6.588;2023-09-08T06:32:55;101743.50;;;19.54;71.76
76766;BME280;65707;52.362;6.588;2023-09-08T06:35:22;101730.34;;;19.64;71.22
76766;BME280;65707;52.362;6.588;2023-09-08T06:37:50;101734.56;;;19.73;70.79
76766;BME280;65707;52.362;6.588;2023-09-08T06:40:17;101732.72;;;19.87;70.71
76766;BME280;65707;52.362;6.588;2023-09-08T06:42:43;101739.63;;;19.96;70.40
76766;BME280;65707;52.362;6.588;2023-09-08T06:45:10;101742.16;;;20.04;70.07
76766;BME280;65707;52.362;6.588;2023-09-08T06:47:36;101747.03;;;20.15;69.72
76766;BME280;65707;52.362;6.588;2023-09-08T06:50:03;101744.91;;;20.30;69.57
76766;BME280;65707;52.362;6.588;2023-09-08T06:52:32;101741.97;;;20.38;69.48
76766;BME280;65707;52.362;6.588;2023-09-08T06:55:04;101745.75;;;20.44;69.39
76766;BME280;65707;52.362;6.588;2023-09-08T06:57:31;101739.47;;;20.56;68.88
76766;BME280;65707;52.362;6.588;2023-09-08T07:00:00;101741.72;;;20.72;68.71
76766;BME280;65707;52.362;6.588;2023-09-08T07:02:28;101741.50;;;20.80;68.08
76766;BME280;65707;52.362;6.588;2023-09-08T07:04:54;101738.53;;;20.88;68.11
76766;BME280;65707;52.362;6.588;2023-09-08T07:07:21;101735.16;;;21.06;67.64
76766;BME280;65707;52.362;6.588;2023-09-08T07:09:48;101739.97;;;21.10;66.62
76766;BME280;65707;52.362;6.588;2023-09-08T07:12:16;101734.47;;;21.23;66.57
76766;BME280;65707;52.362;6.588;2023-09-08T07:14:42;101736.56;;;21.28;66.60
76766;BME280;65707;52.362;6.588;2023-09-08T07:17:09;101736.97;;;21.31;66.97
76766;BME280;65707;52.362;6.588;2023-09-08T07:19:36;101728.66;;;21.51;66.34
76766;BME280;65707;52.362;6.588;2023-09-08T07:22:03;101743.34;;;21.57;66.76
76766;BME280;65707;52.362;6.588;2023-09-08T07:24:29;101737.19;;;21.68;65.98
76766;BME280;65707;52.362;6.588;2023-09-08T07:26:56;101737.53;;;21.84;65.54
76766;BME280;65707;52.362;6.588;2023-09-08T07:29:27;101742.50;;;21.94;64.30
76766;BME280;65707;52.362;6.588;2023-09-08T07:31:57;101746.44;;;22.04;64.39
76766;BME280;65707;52.362;6.588;2023-09-08T07:34:24;101746.16;;;22.12;64.38
76766;BME280;65707;52.362;6.588;2023-09-08T07:36:52;101744.75;;;22.28;63.54
76766;BME280;65707;52.362;6.588;2023-09-08T07:39:19;101744.03;;;22.39;62.64
76766;BME280;65707;52.362;6.588;2023-09-08T07:41:45;101741.63;;;22.55;61.87
76766;BME280;65707;52.362;6.588;2023-09-08T07:44:12;101738.97;;;22.67;60.86
76766;BME280;65707;52.362;6.588;2023-09-08T07:46:40;101735.88;;;22.81;60.02
76766;BME280;65707;52.362;6.588;2023-09-08T07:49:09;101730.72;;;22.91;60.25
76766;BME280;65707;52.362;6.588;2023-09-08T07:51:36;101741.66;;;23.10;59.40
76766;BME280;65707;52.362;6.588;2023-09-08T07:54:03;101723.34;;;23.28;58.47
76766;BME280;65707;52.362;6.588;2023-09-08T07:56:30;101718.78;;;23.52;57.26
76766;BME280;65707;52.362;6.588;2023-09-08T08:01:24;101725.44;;;24.68;55.79
76766;BME280;65707;52.362;6.588;2023-09-08T08:03:52;101697.75;;;25.48;51.30
76766;BME280;65707;52.362;6.588;2023-09-08T08:06:23;101700.72;;;26.03;51.06
76766;BME280;65707;52.362;6.588;2023-09-08T08:08:50;101697.97;;;26.53;50.57
76766;BME280;65707;52.362;6.588;2023-09-08T08:11:17;101690.41;;;27.24;49.20
76766;BME280;65707;52.362;6.588;2023-09-08T08:13:43;101682.91;;;27.63;47.20
76766;BME280;65707;52.362;6.588;2023-09-08T08:16:11;101673.00;;;27.94;45.79
76766;BME280;65707;52.362;6.588;2023-09-08T08:18:40;101677.59;;;28.15;45.30
76766;BME280;65707;52.362;6.588;2023-09-08T08:21:08;101688.69;;;28.20;45.12
76766;BME280;65707;52.362;6.588;2023-09-08T08:23:35;101689.75;;;28.19;45.01
76766;BME280;65707;52.362;6.588;2023-09-08T08:26:03;101696.16;;;28.56;45.66
76766;BME280;65707;52.362;6.588;2023-09-08T08:28:30;101691.50;;;29.13;44.10
76766;BME280;65707;52.362;6.588;2023-09-08T08:30:58;101681.47;;;29.69;42.06
76766;BME280;65707;52.362;6.588;2023-09-08T08:33:27;101685.56;;;29.56;41.60
76766;BME280;65707;52.362;6.588;2023-09-08T08:35:55;101675.94;;;29.94;41.44
76766;BME280;65707;52.362;6.588;2023-09-08T08:38:23;101680.41;;;30.35;39.75
76766;BME280;65707;52.362;6.588;2023-09-08T08:40:52;101683.44;;;30.24;39.60
76766;BME280;65707;52.362;6.588;2023-09-08T08:43:18;101688.94;;;30.59;39.40
76766;BME280;65707;52.362;6.588;2023-09-08T08:45:46;101686.97;;;30.74;38.89
76766;BME280;65707;52.362;6.588;2023-09-08T08:48:14;101682.81;;;30.82;37.79
76766;BME280;65707;52.362;6.588;2023-09-08T08:50:42;101679.06;;;31.16;37.51
76766;BME280;65707;52.362;6.588;2023-09-08T08:53:10;101684.78;;;31.45;37.63
76766;BME280;65707;52.362;6.588;2023-09-08T08:55:41;101690.34;;;31.79;36.74
76766;BME280;65707;52.362;6.588;2023-09-08T08:58:09;101690.09;;;31.75;35.45
76766;BME280;65707;52.362;6.588;2023-09-08T09:00:35;101687.31;;;31.75;34.41
76766;BME280;65707;52.362;6.588;2023-09-08T09:03:04;101691.63;;;31.57;36.55
76766;BME280;65707;52.362;6.588;2023-09-08T09:05:31;101692.41;;;31.63;36.25
76766;BME280;65707;52.362;6.588;2023-09-08T09:08:01;101680.34;;;32.16;35.08
76766;BME280;65707;52.362;6.588;2023-09-08T09:10:30;101692.28;;;32.22;35.55
76766;BME280;65707;52.362;6.588;2023-09-08T09:12:58;101687.84;;;32.49;34.58
76766;BME280;65707;52.362;6.588;2023-09-08T09:15:29;101681.75;;;32.47;34.08
76766;BME280;65707;52.362;6.588;2023-09-08T09:18:06;101683.56;;;32.62;34.68
76766;BME280;65707;52.362;6.588;2023-09-08T09:20:33;101675.47;;;32.65;33.73
76766;BME280;65707;52.362;6.588;2023-09-08T09:23:00;101689.78;;;32.20;34.28
76766;BME280;65707;52.362;6.588;2023-09-08T09:25:28;101684.19;;;32.54;34.52
76766;BME280;65707;52.362;6.588;2023-09-08T09:27:56;101686.81;;;32.97;34.41
76766;BME280;65707;52.362;6.588;2023-09-08T09:30:25;101670.84;;;33.64;32.25
76766;BME280;65707;52.362;6.588;2023-09-08T09:33:02;101673.34;;;33.84;31.44
76766;BME280;65707;52.362;6.588;2023-09-08T09:35:42;101678.53;;;33.72;31.96
76766;BME280;65707;52.362;6.588;2023-09-08T09:38:09;101679.81;;;33.42;32.76
76766;BME280;65707;52.362;6.588;2023-09-08T09:40:37;101671.47;;;33.61;32.25
76766;BME280;65707;52.362;6.588;2023-09-08T09:43:05;101674.41;;;33.69;32.48
76766;BME280;65707;52.362;6.588;2023-09-08T09:45:34;101661.44;;;34.29;32.47
76766;BME280;65707;52.362;6.588;2023-09-08T09:48:02;101653.31;;;35.27;30.77
76766;BME280;65707;52.362;6.588;2023-09-08T09:50:33;101654.59;;;35.93;29.53
76766;BME280;65707;52.362;6.588;2023-09-08T09:53:01;101653.75;;;36.14;29.12
76766;BME280;65707;52.362;6.588;2023-09-08T09:55:28;101661.19;;;36.19;28.29
76766;BME280;65707;52.362;6.588;2023-09-08T09:57:56;101648.91;;;36.28;28.53
76766;BME280;65707;52.362;6.588;2023-09-08T10:00:26;101648.47;;;36.74;27.90
76766;BME280;65707;52.362;6.588;2023-09-08T10:02:57;101649.41;;;36.61;28.04
76766;BME280;65707;52.362;6.588;2023-09-08T10:05:27;101651.78;;;36.76;28.00
76766;BME280;65707;52.362;6.588;2023-09-08T10:07:54;101649.59;;;36.64;27.50
76766;BME280;65707;52.362;6.588;2023-09-08T10:10:26;101648.63;;;36.69;27.28
76766;BME280;65707;52.362;6.588;2023-09-08T10:13:01;101639.47;;;37.59;26.93
76766;BME280;65707;52.362;6.588;2023-09-08T10:15:31;101651.00;;;37.40;26.12
76766;BME280;65707;52.362;6.588;2023-09-08T10:18:04;101653.31;;;37.47;26.73
76766;BME280;65707;52.362;6.588;2023-09-08T10:20:32;101648.44;;;37.13;26.63
76766;BME280;65707;52.362;6.588;2023-09-08T10:23:06;101643.63;;;36.88;26.45
76766;BME280;65707;52.362;6.588;2023-09-08T10:25:37;101650.38;;;36.56;27.50
76766;BME280;65707;52.362;6.588;2023-09-08T10:28:09;101652.78;;;36.41;27.81
76766;BME280;65707;52.362;6.588;2023-09-08T10:30:36;101648.56;;;36.91;27.54
76766;BME280;65707;52.362;6.588;2023-09-08T10:33:06;101641.09;;;37.25;26.86
76766;BME280;65707;52.362;6.588;2023-09-08T10:35:34;101640.16;;;37.81;26.27
76766;BME280;65707;52.362;6.588;2023-09-08T10:38:23;101635.16;;;38.04;26.20
76766;BME280;65707;52.362;6.588;2023-09-08T10:40:54;101624.56;;;38.73;24.81
76766;BME280;65707;52.362;6.588;2023-09-08T10:43:40;101630.03;;;38.69;24.29
76766;BME280;65707;52.362;6.588;2023-09-08T10:46:08;101628.03;;;38.99;24.12
76766;BME280;65707;52.362;6.588;2023-09-08T10:48:41;101629.84;;;38.19;24.68
76766;BME280;65707;52.362;6.588;2023-09-08T10:51:12;101627.97;;;38.49;24.34
76766;BME280;65707;52.362;6.588;2023-09-08T10:53:41;101636.19;;;37.48;25.21
76766;BME280;65707;52.362;6.588;2023-09-08T10:56:07;101646.09;;;36.50;27.53
76766;BME280;65707;52.362;6.588;2023-09-08T10:58:36;101646.03;;;37.46;25.91
76766;BME280;65707;52.362;6.588;2023-09-08T11:01:06;101638.25;;;38.36;25.39
76766;BME280;65707;52.362;6.588;2023-09-08T11:03:46;101639.59;;;38.13;25.33
76766;BME280;65707;52.362;6.588;2023-09-08T11:06:16;101637.44;;;38.74;25.16
76766;BME280;65707;52.362;6.588;2023-09-08T11:08:44;101627.03;;;38.36;25.52
76766;BME280;65707;52.362;6.588;2023-09-08T11:11:11;101636.88;;;38.42;25.39
76766;BME280;65707;52.362;6.588;2023-09-08T11:13:38;101635.88;;;38.85;24.90
76766;BME280;65707;52.362;6.588;2023-09-08T11:16:06;101628.84;;;39.28;24.34
76766;BME280;65707;52.362;6.588;2023-09-08T11:18:34;101631.88;;;39.64;24.80
76766;BME280;65707;52.362;6.588;2023-09-08T11:21:08;101625.75;;;39.83;24.16
76766;BME280;65707;52.362;6.588;2023-09-08T11:23:35;101620.97;;;39.63;24.29
76766;BME280;65707;52.362;6.588;2023-09-08T11:26:03;101625.84;;;39.95;23.78
76766;BME280;65707;52.362;6.588;2023-09-08T11:28:34;101633.38;;;40.15;23.42
76766;BME280;65707;52.362;6.588;2023-09-08T11:31:02;101627.28;;;40.13;23.02
76766;BME280;65707;52.362;6.588;2023-09-08T11:33:33;101620.06;;;40.36;22.98
76766;BME280;65707;52.362;6.588;2023-09-08T11:36:13;101625.38;;;40.98;22.06
76766;BME280;65707;52.362;6.588;2023-09-08T11:38:42;101619.69;;;40.70;22.20
76766;BME280;65707;52.362;6.588;2023-09-08T11:41:09;101614.00;;;40.58;22.23
76766;BME280;65707;52.362;6.588;2023-09-08T11:43:36;101615.41;;;40.28;22.50
76766;BME280;65707;52.362;6.588;2023-09-08T11:46:03;101630.91;;;39.81;24.02
76766;BME280;65707;52.362;6.588;2023-09-08T11:48:31;101623.34;;;40.26;23.21
76766;BME280;65707;52.362;6.588;2023-09-08T11:50:57;101615.53;;;39.99;22.80
76766;BME280;65707;52.362;6.588;2023-09-08T11:53:25;101616.66;;;39.86;23.13
76766;BME280;65707;52.362;6.588;2023-09-08T11:55:53;101619.63;;;39.48;22.88
76766;BME280;65707;52.362;6.588;2023-09-08T11:58:20;101620.50;;;39.61;23.74
76766;BME280;65707;52.362;6.588;2023-09-08T12:00:49;101618.53;;;39.61;24.37
76766;BME280;65707;52.362;6.588;2023-09-08T12:03:19;101617.06;;;39.96;23.58
76766;BME280;65707;52.362;6.588;2023-09-08T12:05:51;101615.63;;;40.47;23.00
76766;BME280;65707;52.362;6.588;2023-09-08T12:08:18;101613.88;;;40.67;22.22
76766;BME280;65707;52.362;6.588;2023-09-08T12:10:47;101607.31;;;40.87;22.25
76766;BME280;65707;52.362;6.588;2023-09-08T12:13:23;101601.22;;;40.61;21.38
76766;BME280;65707;52.362;6.588;2023-09-08T12:15:50;101600.16;;;40.41;22.06
76766;BME280;65707;52.362;6.588;2023-09-08T12:18:16;101610.97;;;40.51;22.62
76766;BME280;65707;52.362;6.588;2023-09-08T12:21:02;101603.44;;;40.55;21.76
76766;BME280;65707;52.362;6.588;2023-09-08T12:23:29;101606.28;;;40.67;22.31
76766;BME280;65707;52.362;6.588;2023-09-08T12:25:57;101603.94;;;40.69;21.94
76766;BME280;65707;52.362;6.588;2023-09-08T12:28:30;101592.41;;;41.10;20.76
76766;BME280;65707;52.362;6.588;2023-09-08T12:30:57;101605.78;;;41.01;21.92
76766;BME280;65707;52.362;6.588;2023-09-08T12:33:28;101599.75;;;41.67;20.57
76766;BME280;65707;52.362;6.588;2023-09-08T12:35:56;101592.88;;;41.80;21.38
76766;BME280;65707;52.362;6.588;2023-09-08T12:38:30;101608.59;;;41.25;20.77
76766;BME280;65707;52.362;6.588;2023-09-08T12:40:58;101597.69;;;41.00;21.57
76766;BME280;65707;52.362;6.588;2023-09-08T12:43:28;101599.09;;;40.34;22.30
76766;BME280;65707;52.362;6.588;2023-09-08T12:45:55;101607.44;;;39.77;23.38
76766;BME280;65707;52.362;6.588;2023-09-08T12:48:26;101601.47;;;40.11;22.58
76766;BME280;65707;52.362;6.588;2023-09-08T12:50:52;101587.72;;;40.54;22.13
76766;BME280;65707;52.362;6.588;2023-09-08T12:53:21;101588.28;;;40.60;22.00
76766;BME280;65707;52.362;6.588;2023-09-08T12:55:48;101585.06;;;40.13;22.26
76766;BME280;65707;52.362;6.588;2023-09-08T12:58:16;101592.47;;;39.52;22.84
76766;BME280;65707;52.362;6.588;2023-09-08T13:00:43;101594.25;;;39.57;22.60